Terminal Aerodrome Forecast
Issued by NWS

Home | Current Version | Previous Version | Text Only | Print | Product List | Glossary On
Versions: 1 2 3 4 5 6 7 8 9 10 11 12 13 14 15 16 17 18 19 20 21
000
FTUS45 KFGZ 011126
TAFSEZ
TAF
KSEZ 011126Z 0112/0212 03006KT P6SM VCSH BKN050 OVC080
      TEMPO 0112/0116 5SM -SHRA BKN040
     FM011700 VRB05KT P6SM SCT060 BKN080 PROB30 0122/0202 -SHRA
      BKN050
     FM020300 06009KT P6SM BKN080=

USA.gov is the U.S. government's official web portal to all federal, state and local government web resources and services.